Terminal Aerodrome Forecast
Issued by NWS

Home | Current Version | Previous Version | Text Only | Print | Product List | Glossary On
Versions: 1 2 3 4 5 6 7 8 9 10 11 12 13
000
FTUS42 KMLB 232342
TAFFPR
TAF
KFPR 232342Z 2400/2424 24008KT P6SM SCT035 BKN060 BKN250
     FM240300 29005KT P6SM SCT015 BKN025
     FM240900 35006KT P6SM SCT025 BKN035
     FM241500 03010KT P6SM SCT025 BKN035=

USA.gov is the U.S. government's official web portal to all federal, state and local government web resources and services.